sensor_id;sensor_type;location;lat;lon;timestamp;P1;durP1;ratioP1;P2;durP2;ratioP2
8044;SDS011;4065;48.754;9.982;2023-05-10T00:00:46;1.92;;;1.80;;
8044;SDS011;4065;48.754;9.982;2023-05-10T00:04:09;3.00;;;2.00;;
8044;SDS011;4065;48.754;9.982;2023-05-10T00:07:31;2.05;;;1.95;;
8044;SDS011;4065;48.754;9.982;2023-05-10T00:10:53;2.05;;;1.95;;
8044;SDS011;4065;48.754;9.982;2023-05-10T00:14:15;2.33;;;2.10;;
8044;SDS011;4065;48.754;9.982;2023-05-10T00:17:37;3.10;;;2.13;;
8044;SDS011;4065;48.754;9.982;2023-05-10T00:21:01;2.20;;;2.00;;
8044;SDS011;4065;48.754;9.982;2023-05-10T00:24:23;2.13;;;2.00;;
8044;SDS011;4065;48.754;9.982;2023-05-10T00:27:45;1.98;;;1.75;;
8044;SDS011;4065;48.754;9.982;2023-05-10T00:31:07;1.83;;;1.73;;
8044;SDS011;4065;48.754;9.982;2023-05-10T00:34:29;1.77;;;1.67;;
8044;SDS011;4065;48.754;9.982;2023-05-10T00:37:52;2.00;;;1.90;;
8044;SDS011;4065;48.754;9.982;2023-05-10T00:41:14;1.60;;;1.50;;
8044;SDS011;4065;48.754;9.982;2023-05-10T00:44:36;1.80;;;1.70;;
8044;SDS011;4065;48.754;9.982;2023-05-10T00:47:58;1.88;;;1.60;;
8044;SDS011;4065;48.754;9.982;2023-05-10T00:51:20;1.67;;;1.58;;
8044;SDS011;4065;48.754;9.982;2023-05-10T00:54:44;1.52;;;1.42;;
8044;SDS011;4065;48.754;9.982;2023-05-10T00:58:06;1.50;;;1.40;;
8044;SDS011;4065;48.754;9.982;2023-05-10T01:01:28;2.92;;;1.77;;
8044;SDS011;4065;48.754;9.982;2023-05-10T01:04:50;1.95;;;1.60;;
8044;SDS011;4065;48.754;9.982;2023-05-10T01:08:13;2.05;;;1.60;;
8044;SDS011;4065;48.754;9.982;2023-05-10T01:11:37;1.80;;;1.50;;
8044;SDS011;4065;48.754;9.982;2023-05-10T01:15:00;1.80;;;1.70;;
8044;SDS011;4065;48.754;9.982;2023-05-10T01:18:22;2.00;;;1.60;;
8044;SDS011;4065;48.754;9.982;2023-05-10T01:21:47;1.70;;;1.60;;
8044;SDS011;4065;48.754;9.982;2023-05-10T01:25:14;1.90;;;1.80;;
8044;SDS011;4065;48.754;9.982;2023-05-10T01:28:53;1.70;;;1.60;;
8044;SDS011;4065;48.754;9.982;2023-05-10T01:32:28;1.50;;;1.40;;
8044;SDS011;4065;48.754;9.982;2023-05-10T01:35:54;1.50;;;1.40;;
8044;SDS011;4065;48.754;9.982;2023-05-10T01:39:20;1.80;;;1.70;;
8044;SDS011;4065;48.754;9.982;2023-05-10T01:42:47;1.58;;;1.48;;
8044;SDS011;4065;48.754;9.982;2023-05-10T01:46:17;1.50;;;1.40;;
8044;SDS011;4065;48.754;9.982;2023-05-10T01:49:45;1.48;;;1.38;;
8044;SDS011;4065;48.754;9.982;2023-05-10T01:53:11;2.22;;;1.60;;
8044;SDS011;4065;48.754;9.982;2023-05-10T01:56:33;2.00;;;1.40;;
8044;SDS011;4065;48.754;9.982;2023-05-10T01:59:56;2.17;;;1.50;;
8044;SDS011;4065;48.754;9.982;2023-05-10T02:03:20;1.92;;;1.45;;
8044;SDS011;4065;48.754;9.982;2023-05-10T02:06:45;1.83;;;1.73;;
8044;SDS011;4065;48.754;9.982;2023-05-10T02:10:09;1.88;;;1.77;;
8044;SDS011;4065;48.754;9.982;2023-05-10T02:13:32;1.80;;;1.60;;
8044;SDS011;4065;48.754;9.982;2023-05-10T02:16:55;1.60;;;1.50;;
8044;SDS011;4065;48.754;9.982;2023-05-10T02:20:17;1.90;;;1.80;;
8044;SDS011;4065;48.754;9.982;2023-05-10T02:23:42;2.03;;;1.90;;
8044;SDS011;4065;48.754;9.982;2023-05-10T02:27:04;2.00;;;1.90;;
8044;SDS011;4065;48.754;9.982;2023-05-10T02:30:26;2.30;;;2.20;;
8044;SDS011;4065;48.754;9.982;2023-05-10T02:33:49;2.33;;;2.22;;
8044;SDS011;4065;48.754;9.982;2023-05-10T02:37:11;2.75;;;2.55;;
8044;SDS011;4065;48.754;9.982;2023-05-10T02:40:35;2.75;;;2.55;;
8044;SDS011;4065;48.754;9.982;2023-05-10T02:43:57;3.10;;;2.90;;
8044;SDS011;4065;48.754;9.982;2023-05-10T02:47:21;3.78;;;3.47;;
8044;SDS011;4065;48.754;9.982;2023-05-10T02:50:44;3.47;;;3.20;;
8044;SDS011;4065;48.754;9.982;2023-05-10T02:54:07;3.50;;;3.30;;
8044;SDS011;4065;48.754;9.982;2023-05-10T02:57:34;4.43;;;2.90;;
8044;SDS011;4065;48.754;9.982;2023-05-10T03:01:00;3.35;;;3.15;;
8044;SDS011;4065;48.754;9.982;2023-05-10T03:04:22;3.88;;;3.35;;
8044;SDS011;4065;48.754;9.982;2023-05-10T03:07:44;4.18;;;3.88;;
8044;SDS011;4065;48.754;9.982;2023-05-10T03:11:12;3.63;;;3.33;;
8044;SDS011;4065;48.754;9.982;2023-05-10T03:14:49;3.70;;;3.40;;
8044;SDS011;4065;48.754;9.982;2023-05-10T03:18:15;3.95;;;3.63;;
8044;SDS011;4065;48.754;9.982;2023-05-10T03:21:40;3.50;;;3.30;;
8044;SDS011;4065;48.754;9.982;2023-05-10T03:25:04;4.15;;;3.85;;
8044;SDS011;4065;48.754;9.982;2023-05-10T03:28:28;3.88;;;3.58;;
8044;SDS011;4065;48.754;9.982;2023-05-10T03:31:51;4.10;;;3.80;;
8044;SDS011;4065;48.754;9.982;2023-05-10T03:35:13;4.60;;;4.20;;
8044;SDS011;4065;48.754;9.982;2023-05-10T03:38:35;4.55;;;4.15;;
8044;SDS011;4065;48.754;9.982;2023-05-10T03:41:57;4.45;;;4.05;;
8044;SDS011;4065;48.754;9.982;2023-05-10T03:45:19;4.22;;;3.92;;
8044;SDS011;4065;48.754;9.982;2023-05-10T03:48:43;4.45;;;4.05;;
8044;SDS011;4065;48.754;9.982;2023-05-10T03:52:05;4.65;;;4.22;;
8044;SDS011;4065;48.754;9.982;2023-05-10T03:55:27;4.28;;;3.80;;
8044;SDS011;4065;48.754;9.982;2023-05-10T03:58:49;4.45;;;4.05;;
8044;SDS011;4065;48.754;9.982;2023-05-10T04:02:11;4.53;;;4.13;;
8044;SDS011;4065;48.754;9.982;2023-05-10T04:05:34;4.53;;;4.22;;
8044;SDS011;4065;48.754;9.982;2023-05-10T04:08:57;4.75;;;4.28;;
8044;SDS011;4065;48.754;9.982;2023-05-10T04:12:20;5.18;;;4.78;;
8044;SDS011;4065;48.754;9.982;2023-05-10T04:15:42;4.93;;;4.53;;
8044;SDS011;4065;48.754;9.982;2023-05-10T04:19:04;6.20;;;4.82;;
8044;SDS011;4065;48.754;9.982;2023-05-10T04:22:27;4.20;;;3.80;;
8044;SDS011;4065;48.754;9.982;2023-05-10T04:25:49;11.25;;;4.50;;
8044;SDS011;4065;48.754;9.982;2023-05-10T04:29:11;5.25;;;4.65;;
8044;SDS011;4065;48.754;9.982;2023-05-10T04:32:33;4.78;;;4.38;;
8044;SDS011;4065;48.754;9.982;2023-05-10T04:35:54;4.97;;;4.57;;
8044;SDS011;4065;48.754;9.982;2023-05-10T04:39:18;5.00;;;4.60;;
8044;SDS011;4065;48.754;9.982;2023-05-10T04:42:40;4.40;;;4.00;;
8044;SDS011;4065;48.754;9.982;2023-05-10T04:46:02;4.70;;;4.30;;
8044;SDS011;4065;48.754;9.982;2023-05-10T04:49:24;4.75;;;4.35;;
8044;SDS011;4065;48.754;9.982;2023-05-10T04:52:46;4.68;;;4.28;;
8044;SDS011;4065;48.754;9.982;2023-05-10T04:56:09;5.13;;;4.65;;
8044;SDS011;4065;48.754;9.982;2023-05-10T04:59:31;4.80;;;4.40;;
8044;SDS011;4065;48.754;9.982;2023-05-10T05:02:53;4.22;;;3.83;;
8044;SDS011;4065;48.754;9.982;2023-05-10T05:06:15;4.70;;;4.30;;
8044;SDS011;4065;48.754;9.982;2023-05-10T05:09:37;5.10;;;4.10;;
8044;SDS011;4065;48.754;9.982;2023-05-10T05:13:00;5.00;;;4.50;;
8044;SDS011;4065;48.754;9.982;2023-05-10T05:16:22;4.72;;;4.32;;
8044;SDS011;4065;48.754;9.982;2023-05-10T05:19:44;4.95;;;4.55;;
8044;SDS011;4065;48.754;9.982;2023-05-10T05:23:06;4.80;;;4.40;;
8044;SDS011;4065;48.754;9.982;2023-05-10T05:26:28;4.60;;;4.20;;
8044;SDS011;4065;48.754;9.982;2023-05-10T05:29:54;5.60;;;3.85;;
8044;SDS011;4065;48.754;9.982;2023-05-10T05:33:16;4.55;;;3.60;;
8044;SDS011;4065;48.754;9.982;2023-05-10T05:36:38;3.90;;;3.58;;
8044;SDS011;4065;48.754;9.982;2023-05-10T05:39:59;5.03;;;3.95;;
8044;SDS011;4065;48.754;9.982;2023-05-10T05:43:22;3.60;;;3.30;;
8044;SDS011;4065;48.754;9.982;2023-05-10T05:46:47;5.45;;;3.30;;
8044;SDS011;4065;48.754;9.982;2023-05-10T05:50:09;3.28;;;2.97;;
8044;SDS011;4065;48.754;9.982;2023-05-10T05:53:31;3.88;;;3.40;;
8044;SDS011;4065;48.754;9.982;2023-05-10T05:56:53;4.38;;;3.40;;
8044;SDS011;4065;48.754;9.982;2023-05-10T06:00:16;4.88;;;3.72;;
8044;SDS011;4065;48.754;9.982;2023-05-10T06:03:39;3.60;;;3.30;;
8044;SDS011;4065;48.754;9.982;2023-05-10T06:07:01;3.25;;;2.95;;
8044;SDS011;4065;48.754;9.982;2023-05-10T06:10:23;6.55;;;3.35;;
8044;SDS011;4065;48.754;9.982;2023-05-10T06:13:45;4.38;;;3.10;;
8044;SDS011;4065;48.754;9.982;2023-05-10T06:17:07;3.92;;;3.40;;
8044;SDS011;4065;48.754;9.982;2023-05-10T06:20:30;4.15;;;3.40;;
8044;SDS011;4065;48.754;9.982;2023-05-10T06:23:52;3.83;;;3.50;;
8044;SDS011;4065;48.754;9.982;2023-05-10T06:27:14;4.90;;;3.05;;
8044;SDS011;4065;48.754;9.982;2023-05-10T06:30:36;3.92;;;3.30;;
8044;SDS011;4065;48.754;9.982;2023-05-10T06:33:58;3.20;;;3.00;;
8044;SDS011;4065;48.754;9.982;2023-05-10T06:37:22;3.85;;;3.40;;
8044;SDS011;4065;48.754;9.982;2023-05-10T06:40:43;4.10;;;3.70;;
8044;SDS011;4065;48.754;9.982;2023-05-10T06:44:05;5.60;;;3.72;;
8044;SDS011;4065;48.754;9.982;2023-05-10T06:47:27;4.78;;;3.65;;
8044;SDS011;4065;48.754;9.982;2023-05-10T06:50:49;4.70;;;4.30;;
8044;SDS011;4065;48.754;9.982;2023-05-10T06:54:12;4.45;;;3.78;;
8044;SDS011;4065;48.754;9.982;2023-05-10T06:57:34;5.57;;;3.60;;
8044;SDS011;4065;48.754;9.982;2023-05-10T07:01:01;6.00;;;3.30;;
8044;SDS011;4065;48.754;9.982;2023-05-10T07:04:23;5.60;;;3.60;;
8044;SDS011;4065;48.754;9.982;2023-05-10T07:07:45;4.57;;;3.45;;
8044;SDS011;4065;48.754;9.982;2023-05-10T07:11:08;3.30;;;3.00;;
8044;SDS011;4065;48.754;9.982;2023-05-10T07:14:30;3.63;;;3.38;;
8044;SDS011;4065;48.754;9.982;2023-05-10T07:17:52;4.47;;;3.40;;
8044;SDS011;4065;48.754;9.982;2023-05-10T07:21:14;3.60;;;3.30;;
8044;SDS011;4065;48.754;9.982;2023-05-10T07:24:36;3.83;;;3.47;;
8044;SDS011;4065;48.754;9.982;2023-05-10T07:27:59;4.60;;;3.60;;
8044;SDS011;4065;48.754;9.982;2023-05-10T07:31:21;4.63;;;3.60;;
8044;SDS011;4065;48.754;9.982;2023-05-10T07:34:43;5.18;;;3.67;;
8044;SDS011;4065;48.754;9.982;2023-05-10T07:38:05;3.70;;;3.40;;
8044;SDS011;4065;48.754;9.982;2023-05-10T07:41:27;4.88;;;3.75;;
8044;SDS011;4065;48.754;9.982;2023-05-10T07:44:50;4.00;;;3.70;;
8044;SDS011;4065;48.754;9.982;2023-05-10T07:48:12;4.63;;;4.22;;
8044;SDS011;4065;48.754;9.982;2023-05-10T07:51:34;4.32;;;3.92;;
8044;SDS011;4065;48.754;9.982;2023-05-10T07:54:56;3.72;;;3.42;;
8044;SDS011;4065;48.754;9.982;2023-05-10T07:58:18;5.35;;;4.20;;
8044;SDS011;4065;48.754;9.982;2023-05-10T08:01:41;3.80;;;3.50;;
8044;SDS011;4065;48.754;9.982;2023-05-10T08:05:03;3.45;;;2.92;;
8044;SDS011;4065;48.754;9.982;2023-05-10T08:08:25;4.40;;;3.60;;
8044;SDS011;4065;48.754;9.982;2023-05-10T08:11:47;3.63;;;3.33;;
8044;SDS011;4065;48.754;9.982;2023-05-10T08:15:09;5.00;;;3.47;;
8044;SDS011;4065;48.754;9.982;2023-05-10T08:18:33;6.03;;;3.15;;
8044;SDS011;4065;48.754;9.982;2023-05-10T08:21:55;3.67;;;3.10;;
8044;SDS011;4065;48.754;9.982;2023-05-10T08:25:17;4.43;;;2.85;;
8044;SDS011;4065;48.754;9.982;2023-05-10T08:28:39;3.45;;;3.15;;
8044;SDS011;4065;48.754;9.982;2023-05-10T08:32:01;2.95;;;2.70;;
8044;SDS011;4065;48.754;9.982;2023-05-10T08:35:24;2.85;;;2.60;;
8044;SDS011;4065;48.754;9.982;2023-05-10T08:38:46;4.68;;;3.90;;
8044;SDS011;4065;48.754;9.982;2023-05-10T08:42:08;3.53;;;3.22;;
8044;SDS011;4065;48.754;9.982;2023-05-10T08:45:31;3.28;;;2.75;;
8044;SDS011;4065;48.754;9.982;2023-05-10T08:48:54;3.00;;;2.70;;
8044;SDS011;4065;48.754;9.982;2023-05-10T08:52:18;3.78;;;2.95;;
8044;SDS011;4065;48.754;9.982;2023-05-10T08:55:40;3.85;;;2.50;;
8044;SDS011;4065;48.754;9.982;2023-05-10T08:59:03;2.50;;;2.20;;
8044;SDS011;4065;48.754;9.982;2023-05-10T09:02:24;2.45;;;2.25;;
8044;SDS011;4065;48.754;9.982;2023-05-10T09:05:47;2.58;;;1.95;;
8044;SDS011;4065;48.754;9.982;2023-05-10T09:09:11;2.70;;;2.20;;
8044;SDS011;4065;48.754;9.982;2023-05-10T09:12:33;1.90;;;1.80;;
8044;SDS011;4065;48.754;9.982;2023-05-10T09:15:55;2.30;;;2.05;;
8044;SDS011;4065;48.754;9.982;2023-05-10T09:19:17;3.03;;;2.10;;
8044;SDS011;4065;48.754;9.982;2023-05-10T09:22:39;2.63;;;2.15;;
8044;SDS011;4065;48.754;9.982;2023-05-10T09:26:03;2.17;;;1.98;;
8044;SDS011;4065;48.754;9.982;2023-05-10T09:29:25;4.68;;;3.30;;
8044;SDS011;4065;48.754;9.982;2023-05-10T09:32:48;2.40;;;2.20;;
8044;SDS011;4065;48.754;9.982;2023-05-10T09:36:10;4.45;;;2.47;;
8044;SDS011;4065;48.754;9.982;2023-05-10T09:39:33;3.53;;;3.30;;
8044;SDS011;4065;48.754;9.982;2023-05-10T09:42:57;4.05;;;2.20;;
8044;SDS011;4065;48.754;9.982;2023-05-10T09:46:21;3.05;;;1.90;;
8044;SDS011;4065;48.754;9.982;2023-05-10T09:49:43;2.30;;;2.10;;
8044;SDS011;4065;48.754;9.982;2023-05-10T09:53:05;2.45;;;2.25;;
8044;SDS011;4065;48.754;9.982;2023-05-10T09:56:33;3.33;;;2.10;;
8044;SDS011;4065;48.754;9.982;2023-05-10T09:59:57;2.00;;;1.60;;
8044;SDS011;4065;48.754;9.982;2023-05-10T10:03:21;2.35;;;2.15;;
8044;SDS011;4065;48.754;9.982;2023-05-10T10:06:44;3.83;;;2.08;;
8044;SDS011;4065;48.754;9.982;2023-05-10T10:10:06;4.28;;;2.30;;
8044;SDS011;4065;48.754;9.982;2023-05-10T10:13:31;3.33;;;2.47;;
8044;SDS011;4065;48.754;9.982;2023-05-10T10:16:55;2.55;;;2.05;;
8044;SDS011;4065;48.754;9.982;2023-05-10T10:20:17;4.05;;;2.70;;
8044;SDS011;4065;48.754;9.982;2023-05-10T10:23:40;4.53;;;4.10;;
8044;SDS011;4065;48.754;9.982;2023-05-10T10:27:04;3.78;;;2.80;;
8044;SDS011;4065;48.754;9.982;2023-05-10T10:30:37;3.17;;;2.90;;
8044;SDS011;4065;48.754;9.982;2023-05-10T10:34:05;3.10;;;2.78;;
8044;SDS011;4065;48.754;9.982;2023-05-10T10:37:41;3.63;;;2.90;;
8044;SDS011;4065;48.754;9.982;2023-05-10T10:41:08;3.65;;;3.10;;
8044;SDS011;4065;48.754;9.982;2023-05-10T10:44:36;3.58;;;2.83;;
8044;SDS011;4065;48.754;9.982;2023-05-10T10:52:12;3.30;;;3.00;;
8044;SDS011;4065;48.754;9.982;2023-05-10T10:55:35;3.40;;;2.63;;
8044;SDS011;4065;48.754;9.982;2023-05-10T10:59:09;3.13;;;2.70;;
8044;SDS011;4065;48.754;9.982;2023-05-10T11:02:37;3.08;;;2.47;;
8044;SDS011;4065;48.754;9.982;2023-05-10T11:06:06;2.50;;;2.30;;
8044;SDS011;4065;48.754;9.982;2023-05-10T11:09:29;2.78;;;2.50;;
8044;SDS011;4065;48.754;9.982;2023-05-10T11:13:01;2.28;;;2.10;;
8044;SDS011;4065;48.754;9.982;2023-05-10T11:16:24;2.53;;;2.33;;
8044;SDS011;4065;48.754;9.982;2023-05-10T11:23:29;2.40;;;2.20;;
8044;SDS011;4065;48.754;9.982;2023-05-10T11:26:53;2.47;;;2.00;;
8044;SDS011;4065;48.754;9.982;2023-05-10T11:30:15;3.42;;;2.42;;
8044;SDS011;4065;48.754;9.982;2023-05-10T11:33:43;2.33;;;2.13;;
8044;SDS011;4065;48.754;9.982;2023-05-10T11:37:06;2.45;;;2.17;;
8044;SDS011;4065;48.754;9.982;2023-05-10T11:40:28;3.30;;;3.00;;
8044;SDS011;4065;48.754;9.982;2023-05-10T11:43:51;2.80;;;2.60;;
8044;SDS011;4065;48.754;9.982;2023-05-10T11:47:14;3.20;;;2.28;;
8044;SDS011;4065;48.754;9.982;2023-05-10T11:50:36;5.53;;;2.80;;
8044;SDS011;4065;48.754;9.982;2023-05-10T11:53:58;4.03;;;3.35;;
8044;SDS011;4065;48.754;9.982;2023-05-10T11:57:20;3.40;;;2.67;;
8044;SDS011;4065;48.754;9.982;2023-05-10T12:00:48;3.17;;;2.60;;
8044;SDS011;4065;48.754;9.982;2023-05-10T12:04:10;2.30;;;2.10;;
8044;SDS011;4065;48.754;9.982;2023-05-10T12:07:32;6.07;;;3.08;;
8044;SDS011;4065;48.754;9.982;2023-05-10T12:11:04;2.67;;;2.47;;
8044;SDS011;4065;48.754;9.982;2023-05-10T12:14:27;3.20;;;2.33;;
8044;SDS011;4065;48.754;9.982;2023-05-10T12:17:55;3.13;;;2.60;;
8044;SDS011;4065;48.754;9.982;2023-05-10T12:21:18;2.85;;;2.60;;
8044;SDS011;4065;48.754;9.982;2023-05-10T12:24:41;4.53;;;4.10;;
8044;SDS011;4065;48.754;9.982;2023-05-10T12:28:04;7.40;;;2.88;;
8044;SDS011;4065;48.754;9.982;2023-05-10T12:31:26;3.03;;;2.75;;
8044;SDS011;4065;48.754;9.982;2023-05-10T12:34:51;2.72;;;2.50;;
8044;SDS011;4065;48.754;9.982;2023-05-10T12:38:26;2.72;;;2.50;;
8044;SDS011;4065;48.754;9.982;2023-05-10T12:41:50;2.70;;;2.50;;
8044;SDS011;4065;48.754;9.982;2023-05-10T12:45:12;2.90;;;2.70;;
8044;SDS011;4065;48.754;9.982;2023-05-10T12:48:34;2.92;;;2.67;;
8044;SDS011;4065;48.754;9.982;2023-05-10T12:51:57;3.63;;;2.65;;
8044;SDS011;4065;48.754;9.982;2023-05-10T12:55:19;3.03;;;2.80;;
8044;SDS011;4065;48.754;9.982;2023-05-10T12:58:41;3.83;;;2.78;;
8044;SDS011;4065;48.754;9.982;2023-05-10T13:02:08;3.90;;;3.50;;
8044;SDS011;4065;48.754;9.982;2023-05-10T13:05:30;5.03;;;4.53;;
8044;SDS011;4065;48.754;9.982;2023-05-10T13:08:53;3.60;;;2.78;;
8044;SDS011;4065;48.754;9.982;2023-05-10T13:12:15;7.53;;;6.13;;
8044;SDS011;4065;48.754;9.982;2023-05-10T13:15:37;5.88;;;4.93;;
8044;SDS011;4065;48.754;9.982;2023-05-10T13:18:59;6.07;;;5.43;;
8044;SDS011;4065;48.754;9.982;2023-05-10T13:22:21;8.45;;;7.25;;
8044;SDS011;4065;48.754;9.982;2023-05-10T13:25:44;6.13;;;4.65;;
8044;SDS011;4065;48.754;9.982;2023-05-10T13:29:06;5.22;;;3.30;;
8044;SDS011;4065;48.754;9.982;2023-05-10T13:32:28;7.07;;;4.75;;
8044;SDS011;4065;48.754;9.982;2023-05-10T13:35:50;6.05;;;3.80;;
8044;SDS011;4065;48.754;9.982;2023-05-10T13:39:12;4.53;;;2.70;;
8044;SDS011;4065;48.754;9.982;2023-05-10T13:42:38;6.68;;;3.45;;
8044;SDS011;4065;48.754;9.982;2023-05-10T13:46:00;3.10;;;2.80;;
8044;SDS011;4065;48.754;9.982;2023-05-10T13:49:22;2.90;;;2.60;;
8044;SDS011;4065;48.754;9.982;2023-05-10T13:52:43;4.22;;;2.53;;
8044;SDS011;4065;48.754;9.982;2023-05-10T13:56:05;3.00;;;2.70;;
8044;SDS011;4065;48.754;9.982;2023-05-10T13:59:29;2.67;;;2.30;;
8044;SDS011;4065;48.754;9.982;2023-05-10T14:02:51;4.53;;;2.30;;
8044;SDS011;4065;48.754;9.982;2023-05-10T14:06:13;11.15;;;3.33;;
8044;SDS011;4065;48.754;9.982;2023-05-10T14:09:35;2.78;;;2.50;;
8044;SDS011;4065;48.754;9.982;2023-05-10T14:12:57;2.85;;;2.55;;
8044;SDS011;4065;48.754;9.982;2023-05-10T14:16:21;3.65;;;2.60;;
8044;SDS011;4065;48.754;9.982;2023-05-10T14:19:43;6.55;;;2.90;;
8044;SDS011;4065;48.754;9.982;2023-05-10T14:23:05;3.40;;;2.65;;
8044;SDS011;4065;48.754;9.982;2023-05-10T14:26:27;4.28;;;3.08;;
8044;SDS011;4065;48.754;9.982;2023-05-10T14:29:52;4.90;;;2.53;;
8044;SDS011;4065;48.754;9.982;2023-05-10T14:33:16;4.25;;;2.65;;
8044;SDS011;4065;48.754;9.982;2023-05-10T14:36:38;2.60;;;2.40;;
8044;SDS011;4065;48.754;9.982;2023-05-10T14:40:00;3.05;;;2.60;;
8044;SDS011;4065;48.754;9.982;2023-05-10T14:43:24;4.30;;;3.00;;
8044;SDS011;4065;48.754;9.982;2023-05-10T14:46:47;3.63;;;3.22;;
8044;SDS011;4065;48.754;9.982;2023-05-10T14:50:11;2.90;;;2.60;;
8044;SDS011;4065;48.754;9.982;2023-05-10T14:53:33;4.03;;;3.45;;
8044;SDS011;4065;48.754;9.982;2023-05-10T14:56:55;4.40;;;2.70;;
8044;SDS011;4065;48.754;9.982;2023-05-10T15:00:19;5.72;;;2.50;;
8044;SDS011;4065;48.754;9.982;2023-05-10T15:03:41;3.97;;;2.30;;
8044;SDS011;4065;48.754;9.982;2023-05-10T15:07:05;2.40;;;2.20;;
8044;SDS011;4065;48.754;9.982;2023-05-10T15:10:27;5.47;;;2.28;;
8044;SDS011;4065;48.754;9.982;2023-05-10T15:13:49;5.05;;;2.53;;
8044;SDS011;4065;48.754;9.982;2023-05-10T15:17:11;3.28;;;2.00;;
8044;SDS011;4065;48.754;9.982;2023-05-10T15:20:33;6.47;;;3.63;;
8044;SDS011;4065;48.754;9.982;2023-05-10T15:23:56;6.40;;;3.00;;
8044;SDS011;4065;48.754;9.982;2023-05-10T15:27:18;6.28;;;2.67;;
8044;SDS011;4065;48.754;9.982;2023-05-10T15:30:40;3.03;;;2.50;;
8044;SDS011;4065;48.754;9.982;2023-05-10T15:34:02;2.75;;;2.55;;
8044;SDS011;4065;48.754;9.982;2023-05-10T15:37:24;3.70;;;2.85;;
8044;SDS011;4065;48.754;9.982;2023-05-10T15:40:47;4.32;;;2.70;;
8044;SDS011;4065;48.754;9.982;2023-05-10T15:44:09;4.68;;;2.70;;
8044;SDS011;4065;48.754;9.982;2023-05-10T15:47:31;3.92;;;2.70;;
8044;SDS011;4065;48.754;9.982;2023-05-10T15:50:53;4.15;;;3.65;;
8044;SDS011;4065;48.754;9.982;2023-05-10T15:54:15;4.28;;;3.03;;
8044;SDS011;4065;48.754;9.982;2023-05-10T15:57:38;2.97;;;2.67;;
8044;SDS011;4065;48.754;9.982;2023-05-10T16:01:00;3.75;;;2.78;;
8044;SDS011;4065;48.754;9.982;2023-05-10T16:04:23;4.55;;;3.22;;
8044;SDS011;4065;48.754;9.982;2023-05-10T16:07:45;3.95;;;3.03;;
8044;SDS011;4065;48.754;9.982;2023-05-10T16:11:07;4.63;;;2.75;;
8044;SDS011;4065;48.754;9.982;2023-05-10T16:14:30;3.80;;;3.15;;
8044;SDS011;4065;48.754;9.982;2023-05-10T16:17:52;6.15;;;4.05;;
8044;SDS011;4065;48.754;9.982;2023-05-10T16:21:14;5.25;;;3.70;;
8044;SDS011;4065;48.754;9.982;2023-05-10T16:24:36;7.32;;;3.53;;
8044;SDS011;4065;48.754;9.982;2023-05-10T16:27:58;4.70;;;3.15;;
8044;SDS011;4065;48.754;9.982;2023-05-10T16:31:22;3.45;;;2.85;;
8044;SDS011;4065;48.754;9.982;2023-05-10T16:34:43;4.55;;;3.00;;
8044;SDS011;4065;48.754;9.982;2023-05-10T16:38:05;3.80;;;3.10;;
8044;SDS011;4065;48.754;9.982;2023-05-10T16:41:27;5.68;;;3.30;;
8044;SDS011;4065;48.754;9.982;2023-05-10T16:44:49;5.85;;;2.58;;
8044;SDS011;4065;48.754;9.982;2023-05-10T16:48:13;3.90;;;2.88;;
8044;SDS011;4065;48.754;9.982;2023-05-10T16:51:35;6.47;;;3.38;;
8044;SDS011;4065;48.754;9.982;2023-05-10T16:54:57;4.60;;;2.95;;
8044;SDS011;4065;48.754;9.982;2023-05-10T16:58:19;6.40;;;2.85;;
8044;SDS011;4065;48.754;9.982;2023-05-10T17:01:40;13.45;;;7.00;;
8044;SDS011;4065;48.754;9.982;2023-05-10T17:05:04;7.05;;;4.13;;
8044;SDS011;4065;48.754;9.982;2023-05-10T17:08:26;5.32;;;3.78;;
8044;SDS011;4065;48.754;9.982;2023-05-10T17:11:48;5.45;;;4.53;;
8044;SDS011;4065;48.754;9.982;2023-05-10T17:15:10;4.57;;;3.75;;
8044;SDS011;4065;48.754;9.982;2023-05-10T17:18:32;6.30;;;3.83;;
8044;SDS011;4065;48.754;9.982;2023-05-10T17:21:56;5.25;;;3.45;;
8044;SDS011;4065;48.754;9.982;2023-05-10T17:25:18;5.10;;;3.30;;
8044;SDS011;4065;48.754;9.982;2023-05-10T17:28:40;4.45;;;3.30;;
8044;SDS011;4065;48.754;9.982;2023-05-10T17:32:02;4.32;;;3.03;;
8044;SDS011;4065;48.754;9.982;2023-05-10T17:35:24;6.13;;;3.45;;
8044;SDS011;4065;48.754;9.982;2023-05-10T17:38:47;3.75;;;3.08;;
8044;SDS011;4065;48.754;9.982;2023-05-10T17:42:09;7.22;;;3.10;;
8044;SDS011;4065;48.754;9.982;2023-05-10T17:45:32;4.82;;;3.80;;
8044;SDS011;4065;48.754;9.982;2023-05-10T17:48:54;6.03;;;3.33;;
8044;SDS011;4065;48.754;9.982;2023-05-10T17:52:16;4.57;;;3.10;;
8044;SDS011;4065;48.754;9.982;2023-05-10T17:55:39;3.97;;;3.13;;
8044;SDS011;4065;48.754;9.982;2023-05-10T17:59:02;3.35;;;2.97;;
8044;SDS011;4065;48.754;9.982;2023-05-10T18:02:24;5.22;;;3.47;;
8044;SDS011;4065;48.754;9.982;2023-05-10T18:05:46;3.40;;;3.10;;
8044;SDS011;4065;48.754;9.982;2023-05-10T18:09:08;3.70;;;3.35;;
8044;SDS011;4065;48.754;9.982;2023-05-10T18:12:32;4.10;;;3.40;;
8044;SDS011;4065;48.754;9.982;2023-05-10T18:15:53;3.10;;;2.70;;
8044;SDS011;4065;48.754;9.982;2023-05-10T18:19:15;6.25;;;3.40;;
8044;SDS011;4065;48.754;9.982;2023-05-10T18:22:41;4.53;;;3.15;;
8044;SDS011;4065;48.754;9.982;2023-05-10T18:26:03;5.57;;;4.30;;
8044;SDS011;4065;48.754;9.982;2023-05-10T18:29:27;4.60;;;3.60;;
8044;SDS011;4065;48.754;9.982;2023-05-10T18:32:49;8.73;;;3.88;;
8044;SDS011;4065;48.754;9.982;2023-05-10T18:36:11;4.18;;;3.78;;
8044;SDS011;4065;48.754;9.982;2023-05-10T18:39:33;5.32;;;3.67;;
8044;SDS011;4065;48.754;9.982;2023-05-10T18:42:55;8.07;;;5.60;;
8044;SDS011;4065;48.754;9.982;2023-05-10T18:46:19;4.95;;;3.90;;
8044;SDS011;4065;48.754;9.982;2023-05-10T18:49:41;5.47;;;4.28;;
8044;SDS011;4065;48.754;9.982;2023-05-10T18:53:04;4.72;;;3.92;;
8044;SDS011;4065;48.754;9.982;2023-05-10T18:56:27;7.63;;;5.70;;
8044;SDS011;4065;48.754;9.982;2023-05-10T18:59:48;8.52;;;6.28;;
8044;SDS011;4065;48.754;9.982;2023-05-10T19:03:12;6.90;;;4.22;;
8044;SDS011;4065;48.754;9.982;2023-05-10T19:06:34;9.93;;;6.28;;
8044;SDS011;4065;48.754;9.982;2023-05-10T19:09:56;11.43;;;6.10;;
8044;SDS011;4065;48.754;9.982;2023-05-10T19:13:18;14.30;;;10.70;;
8044;SDS011;4065;48.754;9.982;2023-05-10T19:16:40;11.65;;;7.75;;
8044;SDS011;4065;48.754;9.982;2023-05-10T19:20:03;11.63;;;6.43;;
8044;SDS011;4065;48.754;9.982;2023-05-10T19:23:26;5.88;;;4.30;;
8044;SDS011;4065;48.754;9.982;2023-05-10T19:26:48;6.07;;;4.60;;
8044;SDS011;4065;48.754;9.982;2023-05-10T19:30:10;5.90;;;4.22;;
8044;SDS011;4065;48.754;9.982;2023-05-10T19:33:33;5.78;;;3.78;;
8044;SDS011;4065;48.754;9.982;2023-05-10T19:36:56;6.20;;;4.30;;
8044;SDS011;4065;48.754;9.982;2023-05-10T19:40:19;4.78;;;3.72;;
8044;SDS011;4065;48.754;9.982;2023-05-10T19:43:40;5.10;;;3.78;;
8044;SDS011;4065;48.754;9.982;2023-05-10T19:47:02;4.00;;;3.53;;
8044;SDS011;4065;48.754;9.982;2023-05-10T19:50:24;5.10;;;3.80;;
8044;SDS011;4065;48.754;9.982;2023-05-10T19:53:48;4.88;;;4.00;;
8044;SDS011;4065;48.754;9.982;2023-05-10T19:57:09;4.70;;;3.72;;
8044;SDS011;4065;48.754;9.982;2023-05-10T20:00:31;4.47;;;3.78;;
8044;SDS011;4065;48.754;9.982;2023-05-10T20:03:53;5.47;;;3.40;;
8044;SDS011;4065;48.754;9.982;2023-05-10T20:07:16;6.20;;;4.03;;
8044;SDS011;4065;48.754;9.982;2023-05-10T20:10:39;4.30;;;3.90;;
8044;SDS011;4065;48.754;9.982;2023-05-10T20:14:01;7.95;;;4.10;;
8044;SDS011;4065;48.754;9.982;2023-05-10T20:17:23;7.35;;;5.15;;
8044;SDS011;4065;48.754;9.982;2023-05-10T20:20:46;3.95;;;3.55;;
8044;SDS011;4065;48.754;9.982;2023-05-10T20:24:07;5.18;;;3.60;;
8044;SDS011;4065;48.754;9.982;2023-05-10T20:27:31;6.28;;;3.35;;
8044;SDS011;4065;48.754;9.982;2023-05-10T20:30:53;4.10;;;3.65;;
8044;SDS011;4065;48.754;9.982;2023-05-10T20:34:16;5.15;;;3.30;;
8044;SDS011;4065;48.754;9.982;2023-05-10T20:37:38;4.63;;;3.08;;
8044;SDS011;4065;48.754;9.982;2023-05-10T20:41:00;4.20;;;3.53;;
8044;SDS011;4065;48.754;9.982;2023-05-10T20:44:24;3.75;;;3.30;;
8044;SDS011;4065;48.754;9.982;2023-05-10T20:47:45;5.25;;;3.80;;
8044;SDS011;4065;48.754;9.982;2023-05-10T20:51:07;3.97;;;3.53;;
8044;SDS011;4065;48.754;9.982;2023-05-10T20:54:29;4.75;;;4.32;;
8044;SDS011;4065;48.754;9.982;2023-05-10T20:57:51;8.27;;;6.18;;
8044;SDS011;4065;48.754;9.982;2023-05-10T21:01:15;9.27;;;6.63;;
8044;SDS011;4065;48.754;9.982;2023-05-10T21:04:37;7.57;;;4.82;;
8044;SDS011;4065;48.754;9.982;2023-05-10T21:07:59;6.80;;;4.10;;